createdAt,value
2022-07-30T00:02:21.210Z,17.16
2022-07-30T00:04:54.322Z,17.15
2022-07-30T00:07:27.631Z,17.15
2022-07-30T00:10:02.581Z,17.12
2022-07-30T00:12:36.875Z,17.09
2022-07-30T00:15:10.878Z,17.04
2022-07-30T00:17:46.813Z,16.96
2022-07-30T00:20:23.338Z,16.91
2022-07-30T00:23:00.644Z,16.84
2022-07-30T00:25:34.592Z,16.81
2022-07-30T00:28:07.341Z,16.78
2022-07-30T00:30:41.486Z,16.75
2022-07-30T00:33:16.593Z,16.72
2022-07-30T00:35:49.671Z,16.67
2022-07-30T00:38:22.295Z,16.62
2022-07-30T00:40:55.635Z,16.57
2022-07-30T00:43:28.570Z,16.53
2022-07-30T00:46:01.996Z,16.51
2022-07-30T00:48:35.893Z,16.47
2022-07-30T00:51:09.351Z,16.42
2022-07-30T00:58:12.337Z,16.23
2022-07-30T01:08:11.408Z,16.06
2022-07-30T01:10:42.641Z,16.00
2022-07-30T01:13:13.724Z,15.96
2022-07-30T01:15:45.011Z,15.91
2022-07-30T01:18:16.717Z,15.84
2022-07-30T01:20:52.932Z,15.75
2022-07-30T01:23:29.224Z,15.70
2022-07-30T01:26:05.665Z,15.62
2022-07-30T01:28:40.074Z,15.55
2022-07-30T01:31:12.264Z,15.47
2022-07-30T01:33:46.496Z,15.42
2022-07-30T01:36:18.973Z,15.40
2022-07-30T01:38:52.244Z,15.40
2022-07-30T01:41:23.872Z,15.41
2022-07-30T01:43:55.402Z,15.42
2022-07-30T01:46:26.722Z,15.43
2022-07-30T01:48:59.535Z,15.42
2022-07-30T01:51:37.236Z,15.42
2022-07-30T01:54:11.035Z,15.45
2022-07-30T01:56:47.270Z,15.49
2022-07-30T01:59:19.655Z,15.51
2022-07-30T02:01:52.091Z,15.51
2022-07-30T02:04:23.576Z,15.48
2022-07-30T02:07:03.071Z,15.46
2022-07-30T02:09:47.209Z,15.42
2022-07-30T02:12:35.170Z,15.38
2022-07-30T02:15:22.169Z,15.33
2022-07-30T02:18:05.569Z,15.31
2022-07-30T02:20:38.523Z,15.26
2022-07-30T02:23:13.823Z,15.20
2022-07-30T02:25:51.237Z,15.16
2022-07-30T02:28:28.012Z,15.11
2022-07-30T02:31:01.599Z,15.08
2022-07-30T02:33:39.279Z,15.06
2022-07-30T02:36:20.718Z,15.03
2022-07-30T02:38:52.858Z,15.00
2022-07-30T02:41:25.218Z,14.97
2022-07-30T02:43:56.759Z,14.93
2022-07-30T02:46:28.706Z,14.90
2022-07-30T02:49:23.654Z,14.90
2022-07-30T02:51:55.072Z,14.91
2022-07-30T02:54:26.882Z,14.92
2022-07-30T02:56:58.729Z,14.91
2022-07-30T02:59:30.791Z,14.90
2022-07-30T03:02:03.167Z,14.86
2022-07-30T03:04:34.678Z,14.83
2022-07-30T03:07:08.754Z,14.80
2022-07-30T03:09:50.858Z,14.79
2022-07-30T03:12:24.354Z,14.77
2022-07-30T03:14:55.519Z,14.74
2022-07-30T03:17:29.774Z,14.72
2022-07-30T03:20:02.321Z,14.70
2022-07-30T03:22:34.619Z,14.70
2022-07-30T03:25:06.832Z,14.68
2022-07-30T03:27:39.266Z,14.65
2022-07-30T03:30:12.029Z,14.60
2022-07-30T03:32:43.268Z,14.58
2022-07-30T03:35:17.382Z,14.56
2022-07-30T03:37:51.858Z,14.55
2022-07-30T03:40:24.031Z,14.54
2022-07-30T03:42:57.785Z,14.51
2022-07-30T03:45:29.556Z,14.49
2022-07-30T03:48:06.283Z,14.47
2022-07-30T03:50:38.604Z,14.46
2022-07-30T03:53:11.549Z,14.45
2022-07-30T03:56:03.322Z,14.44
2022-07-30T03:58:54.666Z,14.42
2022-07-30T04:01:28.773Z,14.41
2022-07-30T04:04:09.293Z,14.39
2022-07-30T04:06:43.043Z,14.41
2022-07-30T04:09:15.727Z,14.41
2022-07-30T04:11:45.456Z,14.42
2022-07-30T04:14:21.189Z,14.41
2022-07-30T04:16:55.955Z,14.41
2022-07-30T04:19:29.972Z,14.41
2022-07-30T04:22:01.332Z,14.43
2022-07-30T04:24:33.855Z,14.47
2022-07-30T04:27:05.251Z,14.52
2022-07-30T04:29:36.550Z,14.54
2022-07-30T04:32:09.909Z,14.57
2022-07-30T04:34:59.132Z,14.63
2022-07-30T04:37:47.971Z,14.73
2022-07-30T04:40:19.035Z,14.85
2022-07-30T04:42:50.581Z,14.97
2022-07-30T04:45:21.630Z,15.09
2022-07-30T04:47:55.147Z,15.14
2022-07-30T04:50:29.171Z,15.18
2022-07-30T04:53:01.155Z,15.22
2022-07-30T04:55:35.913Z,15.27
2022-07-30T04:58:08.153Z,15.64
2022-07-30T05:00:41.719Z,16.22
2022-07-30T05:03:16.861Z,16.84
2022-07-30T05:05:57.495Z,17.51
2022-07-30T05:08:31.366Z,18.21
2022-07-30T05:11:19.895Z,18.89
2022-07-30T05:13:51.491Z,19.65
2022-07-30T05:16:24.970Z,20.20
2022-07-30T05:18:56.326Z,20.65
2022-07-30T05:21:28.689Z,21.12
2022-07-30T05:24:00.935Z,21.59
2022-07-30T05:26:38.265Z,22.10
2022-07-30T05:29:09.850Z,22.47
2022-07-30T05:31:54.572Z,22.79
2022-07-30T05:34:26.395Z,23.14
2022-07-30T05:36:57.402Z,23.44
2022-07-30T05:39:28.659Z,23.67
2022-07-30T05:42:18.589Z,23.88
2022-07-30T05:44:56.162Z,23.99
2022-07-30T05:47:27.220Z,24.03
2022-07-30T05:50:04.601Z,24.14
2022-07-30T05:52:37.726Z,24.26
2022-07-30T05:55:20.018Z,24.34
2022-07-30T05:58:16.628Z,24.49
2022-07-30T06:00:49.463Z,24.61
2022-07-30T06:03:27.053Z,24.64
2022-07-30T06:06:23.455Z,24.63
2022-07-30T06:09:00.862Z,24.71
2022-07-30T06:11:34.385Z,24.82
2022-07-30T06:14:13.007Z,24.98
2022-07-30T06:16:45.789Z,25.15
2022-07-30T06:19:19.766Z,25.36
2022-07-30T06:22:05.764Z,25.63
2022-07-30T06:24:43.634Z,25.93
2022-07-30T06:27:22.316Z,26.32
2022-07-30T06:29:54.660Z,26.62
2022-07-30T06:32:28.846Z,26.82
2022-07-30T06:35:09.158Z,26.55
2022-07-30T06:38:07.484Z,26.20
2022-07-30T06:40:36.122Z,25.95
2022-07-30T06:43:16.863Z,25.76
2022-07-30T06:46:20.569Z,25.75
2022-07-30T06:49:00.916Z,25.92
2022-07-30T06:51:38.071Z,26.07
2022-07-30T06:54:11.035Z,26.05
2022-07-30T06:57:15.967Z,26.12
2022-07-30T06:59:55.986Z,25.81
2022-07-30T07:02:40.073Z,25.76
2022-07-30T07:05:22.978Z,25.91
2022-07-30T07:07:59.637Z,25.91
2022-07-30T07:10:39.825Z,25.88
2022-07-30T07:13:32.158Z,25.85
2022-07-30T07:16:07.494Z,26.00
2022-07-30T07:18:42.025Z,26.18
2022-07-30T07:21:16.233Z,26.30
2022-07-30T07:23:50.139Z,26.28
2022-07-30T07:26:44.774Z,26.13
2022-07-30T07:29:19.037Z,26.25
2022-07-30T07:36:28.776Z,26.09
2022-07-30T07:39:03.144Z,26.02
2022-07-30T07:41:48.183Z,25.98
2022-07-30T07:44:28.321Z,26.00
2022-07-30T07:47:02.628Z,26.19
2022-07-30T07:49:39.008Z,26.41
2022-07-30T07:52:13.538Z,26.72
2022-07-30T07:54:47.103Z,27.16
2022-07-30T07:57:21.748Z,27.35
2022-07-30T07:59:56.124Z,27.49
2022-07-30T08:02:52.306Z,27.54
2022-07-30T08:05:58.143Z,27.90
2022-07-30T08:13:49.350Z,28.55
2022-07-30T08:16:42.687Z,28.28
2022-07-30T08:19:40.677Z,28.10
2022-07-30T08:22:28.431Z,27.94
2022-07-30T08:25:03.919Z,27.94
2022-07-30T08:27:39.248Z,28.11
2022-07-30T08:30:18.347Z,28.35
2022-07-30T08:32:57.492Z,28.48
2022-07-30T08:35:38.248Z,28.75
2022-07-30T08:38:24.725Z,29.05
2022-07-30T08:41:02.550Z,29.31
2022-07-30T08:43:41.087Z,29.39
2022-07-30T08:46:18.683Z,29.56
2022-07-30T08:49:09.164Z,29.72
2022-07-30T08:51:46.144Z,29.91
2022-07-30T08:54:31.722Z,30.14
2022-07-30T08:57:08.116Z,30.34
2022-07-30T08:59:59.599Z,30.54
2022-07-30T09:08:31.487Z,30.65
2022-07-30T09:11:02.571Z,30.80
2022-07-30T09:13:35.980Z,30.92
2022-07-30T09:16:08.618Z,30.90
2022-07-30T09:18:44.675Z,30.89
2022-07-30T09:21:37.400Z,30.74
2022-07-30T09:24:27.997Z,30.57
2022-07-30T09:27:46.765Z,30.58
2022-07-30T09:30:50.849Z,30.74
2022-07-30T09:33:41.702Z,30.79
2022-07-30T09:36:36.097Z,30.74
2022-07-30T09:39:37.742Z,30.83
2022-07-30T09:42:29.692Z,31.00
2022-07-30T09:45:11.432Z,31.21
2022-07-30T09:47:45.059Z,31.43
2022-07-30T09:50:29.179Z,31.57
2022-07-30T09:53:15.005Z,31.64
2022-07-30T09:55:46.937Z,31.70
2022-07-30T09:58:26.672Z,31.71
2022-07-30T10:01:04.002Z,31.77
2022-07-30T10:03:55.914Z,31.74
2022-07-30T10:06:41.788Z,31.66
2022-07-30T10:09:37.547Z,31.43
2022-07-30T10:12:11.919Z,31.18
2022-07-30T10:14:49.546Z,31.39
2022-07-30T10:17:25.463Z,31.57
2022-07-30T10:20:27.110Z,31.67
2022-07-30T10:23:26.464Z,31.78
2022-07-30T10:26:18.249Z,31.89
2022-07-30T10:29:33.618Z,31.96
2022-07-30T10:32:06.101Z,31.83
2022-07-30T10:34:42.344Z,31.85
2022-07-30T10:37:16.686Z,31.92
2022-07-30T10:39:56.809Z,31.92
2022-07-30T10:46:48.318Z,31.96
2022-07-30T19:50:38.520Z,20.35
2022-07-30T19:53:08.969Z,20.32
2022-07-30T19:55:39.661Z,20.34
2022-07-30T19:58:17.201Z,20.35
2022-07-30T20:00:49.636Z,20.38
2022-07-30T20:03:26.268Z,20.41
2022-07-30T20:06:02.663Z,20.43
2022-07-30T20:08:33.514Z,20.46
2022-07-30T20:11:05.970Z,20.50
2022-07-30T20:13:45.000Z,20.55
2022-07-30T20:16:17.651Z,20.59
2022-07-30T20:18:48.504Z,20.61
2022-07-30T20:21:57.067Z,20.65
2022-07-30T20:24:14.771Z,20.69
2022-07-30T20:26:45.971Z,20.73
2022-07-30T20:29:19.464Z,20.76
2022-07-30T20:31:51.351Z,20.79
2022-07-30T20:34:23.912Z,20.80
2022-07-30T20:36:58.527Z,20.81
2022-07-30T20:39:46.640Z,20.82
2022-07-30T20:42:21.830Z,20.82
2022-07-30T20:44:56.816Z,20.82
2022-07-30T20:47:34.917Z,20.83
2022-07-30T20:50:12.091Z,20.84
2022-07-30T20:52:46.906Z,20.84
2022-07-30T20:55:22.186Z,20.83
2022-07-30T20:57:58.745Z,20.84
2022-07-30T21:00:49.657Z,20.83
2022-07-30T21:03:22.188Z,20.83
2022-07-30T21:05:52.982Z,20.83
2022-07-30T21:08:25.596Z,20.84
2022-07-30T21:10:56.855Z,20.85
2022-07-30T21:13:27.306Z,20.86
2022-07-30T21:18:50.061Z,20.89
2022-07-30T21:21:48.124Z,20.89
2022-07-30T21:30:15.339Z,20.95
2022-07-30T21:32:46.349Z,20.93
2022-07-30T21:35:16.898Z,20.93
2022-07-30T21:37:50.244Z,20.93
2022-07-30T21:40:24.785Z,20.92
2022-07-30T21:42:55.377Z,20.91
2022-07-30T21:45:28.327Z,20.90
2022-07-30T21:48:10.902Z,20.88
2022-07-30T21:50:41.859Z,20.87
2022-07-30T21:53:14.011Z,20.85
2022-07-30T21:55:52.793Z,20.82
2022-07-30T21:58:26.089Z,20.79
2022-07-30T22:01:17.509Z,20.77
2022-07-30T22:04:03.951Z,20.74
2022-07-30T22:07:07.705Z,20.73
2022-07-30T22:09:38.054Z,20.70
2022-07-30T22:12:12.725Z,20.70
2022-07-30T22:14:44.144Z,20.69
2022-07-30T22:17:22.581Z,20.69
2022-07-30T22:19:54.875Z,20.67
2022-07-30T22:22:26.353Z,20.65
2022-07-30T22:25:00.078Z,20.64
2022-07-30T22:27:40.190Z,20.63
2022-07-30T22:30:22.227Z,20.61
2022-07-30T22:32:53.258Z,20.59
2022-07-30T22:35:33.754Z,20.56
2022-07-30T22:38:04.980Z,20.53
2022-07-30T22:40:36.028Z,20.50
2022-07-30T22:43:08.805Z,20.49
2022-07-30T22:45:49.017Z,20.47
2022-07-30T22:48:26.603Z,20.44
2022-07-30T22:50:58.775Z,20.39
2022-07-30T22:54:02.651Z,20.34
2022-07-30T22:56:23.843Z,20.28
2022-07-30T22:58:54.581Z,20.21
2022-07-30T23:01:25.426Z,20.13
2022-07-30T23:03:56.489Z,20.05
2022-07-30T23:06:27.294Z,19.99
2022-07-30T23:08:57.909Z,19.93
2022-07-30T23:11:36.954Z,19.88
2022-07-30T23:12:32.351Z,20.87
2022-07-30T23:14:08.611Z,19.84
2022-07-30T23:16:39.444Z,19.79
2022-07-30T23:19:10.443Z,19.77
2022-07-30T23:21:50.461Z,19.74
2022-07-30T23:24:20.934Z,19.69
2022-07-30T23:26:51.273Z,19.65
2022-07-30T23:29:22.107Z,19.61
2022-07-30T23:31:52.504Z,19.57
2022-07-30T23:34:22.957Z,19.55
2022-07-30T23:36:53.379Z,19.52
2022-07-30T23:39:24.410Z,19.50
2022-07-30T23:41:54.785Z,19.49
2022-07-30T23:44:25.250Z,19.47
2022-07-30T23:46:55.587Z,19.47
2022-07-30T23:49:26.054Z,19.45
2022-07-30T23:51:56.485Z,19.44
2022-07-30T23:54:27.676Z,19.42
2022-07-30T23:56:58.142Z,19.41
2022-07-30T23:59:40.978Z,19.40
